createdAt,value
2022-08-12T00:00:35.458Z,58.65
2022-08-12T00:05:21.453Z,58.26
2022-08-12T00:10:02.106Z,58.40
2022-08-12T00:14:22.101Z,59.14
2022-08-12T00:18:42.153Z,59.28
2022-08-12T00:23:02.569Z,59.79
2022-08-12T00:27:27.337Z,59.55
2022-08-12T00:32:03.103Z,60.03
2022-08-12T00:36:35.356Z,60.25
2022-08-12T00:40:57.630Z,60.81
2022-08-12T00:44:59.159Z,60.54
2022-08-12T00:49:01.979Z,61.08
2022-08-12T00:53:03.625Z,61.33
2022-08-12T00:57:28.932Z,61.47
2022-08-12T01:02:10.801Z,62.13
2022-08-12T01:06:14.370Z,61.72
2022-08-12T01:10:34.070Z,61.52
2022-08-12T01:14:37.219Z,62.63
2022-08-12T01:18:40.145Z,62.75
2022-08-12T01:22:54.139Z,61.95
2022-08-12T01:26:56.666Z,62.50
2022-08-12T01:31:02.340Z,62.95
2022-08-12T01:35:12.882Z,63.03
2022-08-12T01:39:16.270Z,63.27
2022-08-12T01:43:21.598Z,63.09
2022-08-12T01:47:56.427Z,63.67
2022-08-12T01:52:21.656Z,64.13
2022-08-12T01:56:26.093Z,63.70
2022-08-12T02:00:46.940Z,64.71
2022-08-12T02:05:53.905Z,65.12
2022-08-12T02:10:50.672Z,64.56
2022-08-12T02:15:13.153Z,64.58
2022-08-12T02:19:37.311Z,64.78
2022-08-12T02:23:40.505Z,64.99
2022-08-12T02:27:54.105Z,65.49
2022-08-12T02:31:57.298Z,65.55
2022-08-12T02:36:02.497Z,65.55
2022-08-12T02:40:05.419Z,65.92
2022-08-12T02:44:10.680Z,66.05
2022-08-12T02:48:17.561Z,66.02
2022-08-12T02:52:20.815Z,66.43
2022-08-12T02:56:22.969Z,66.22
2022-08-12T03:00:26.159Z,66.57
2022-08-12T03:04:43.470Z,67.34
2022-08-12T03:08:53.739Z,67.40
2022-08-12T03:12:58.624Z,67.12
2022-08-12T03:17:30.207Z,66.64
2022-08-12T03:21:57.958Z,67.18
2022-08-12T03:25:58.958Z,67.52
2022-08-12T03:30:00.826Z,67.49
2022-08-12T03:34:07.888Z,67.37
2022-08-12T03:38:12.445Z,67.22
2022-08-12T03:42:33.046Z,67.94
2022-08-12T03:46:57.514Z,68.18
2022-08-12T03:51:18.449Z,68.39
2022-08-12T03:55:38.745Z,67.82
2022-08-12T03:59:58.937Z,68.30
2022-08-12T04:04:02.020Z,68.85
2022-08-12T04:08:04.108Z,68.42
2022-08-12T04:12:26.044Z,68.92
2022-08-12T04:16:28.720Z,69.19
2022-08-12T04:20:30.329Z,69.38
2022-08-12T04:24:34.860Z,69.88
2022-08-12T04:28:36.715Z,70.48
2022-08-12T04:32:43.707Z,69.87
2022-08-12T04:36:46.037Z,70.23
2022-08-12T04:40:48.550Z,69.97
2022-08-12T04:44:49.880Z,70.38
2022-08-12T04:48:52.576Z,69.96
2022-08-12T04:52:55.481Z,69.53
2022-08-12T04:57:03.563Z,69.79
2022-08-12T05:01:07.761Z,69.04
2022-08-12T05:05:18.745Z,68.60
2022-08-12T05:09:20.335Z,68.11
2022-08-12T05:13:27.306Z,67.86
2022-08-12T05:17:29.015Z,67.70
2022-08-12T05:21:32.958Z,67.80
2022-08-12T05:25:35.050Z,66.89
2022-08-12T05:30:06.576Z,66.83
2022-08-12T05:33:58.130Z,66.12
2022-08-12T05:38:18.345Z,65.90
2022-08-12T05:42:19.763Z,63.15
2022-08-12T05:46:37.409Z,60.36
2022-08-12T05:50:39.133Z,57.75
2022-08-12T05:54:57.112Z,56.68
2022-08-12T05:59:01.577Z,56.70
2022-08-12T06:03:04.838Z,56.03
2022-08-12T06:07:59.174Z,54.80
2022-08-12T06:11:30.292Z,52.52
2022-08-12T06:15:33.201Z,49.13
2022-08-12T06:20:27.548Z,46.20
2022-08-12T06:23:57.438Z,43.23
2022-08-12T06:28:07.206Z,41.21
2022-08-12T06:32:09.969Z,39.23
2022-08-12T06:36:14.103Z,37.95
2022-08-12T06:40:41.366Z,36.87
2022-08-12T06:44:42.838Z,35.96
2022-08-12T06:48:44.310Z,35.09
2022-08-12T06:52:46.141Z,34.41
2022-08-12T06:57:03.680Z,34.28
2022-08-12T07:01:07.364Z,33.86
2022-08-12T07:05:09.374Z,33.53
2022-08-12T07:09:14.532Z,32.84
2022-08-12T07:14:11.199Z,32.65
2022-08-12T07:18:00.855Z,32.92
2022-08-12T07:22:06.340Z,32.16
2022-08-12T07:26:09.735Z,31.98
2022-08-12T07:30:14.414Z,31.47
2022-08-12T07:34:17.253Z,31.26
2022-08-12T07:38:33.465Z,30.52
2022-08-12T07:42:35.315Z,30.62
2022-08-12T07:46:40.690Z,29.63
2022-08-12T07:50:42.213Z,29.46
2022-08-12T07:54:44.538Z,29.39
2022-08-12T07:58:47.204Z,28.97
2022-08-12T08:02:49.511Z,28.99
2022-08-12T08:06:51.265Z,28.71
2022-08-12T08:11:15.383Z,28.19
2022-08-12T08:15:17.208Z,27.98
2022-08-12T08:19:25.519Z,27.86
2022-08-12T08:23:56.274Z,27.45
2022-08-12T08:28:05.940Z,27.42
2022-08-12T08:32:07.606Z,26.77
2022-08-12T08:36:16.351Z,26.69
2022-08-12T08:40:43.696Z,26.24
2022-08-12T08:44:45.460Z,26.17
2022-08-12T08:48:46.903Z,25.78
2022-08-12T08:52:49.057Z,24.78
2022-08-12T08:56:51.197Z,24.97
2022-08-12T09:00:52.865Z,24.75
2022-08-12T09:05:13.457Z,24.46
2022-08-12T09:09:17.905Z,24.40
2022-08-12T09:14:10.554Z,24.38
2022-08-12T09:17:57.474Z,24.06
2022-08-12T09:22:00.761Z,24.29
2022-08-12T09:30:41.338Z,24.06
2022-08-12T09:34:50.632Z,23.32
2022-08-12T09:38:59.026Z,23.75
2022-08-12T09:43:21.290Z,23.74
2022-08-12T09:47:29.668Z,23.20
2022-08-12T09:51:37.475Z,23.77
2022-08-12T09:56:33.365Z,24.13
2022-08-12T10:00:17.454Z,23.58
2022-08-12T10:04:20.749Z,23.65
2022-08-12T10:08:24.458Z,23.45
2022-08-12T10:13:06.982Z,23.65
2022-08-12T10:17:08.596Z,23.36
2022-08-12T10:21:16.373Z,23.24
2022-08-12T10:26:35.588Z,22.88
2022-08-12T10:30:37.148Z,22.42
2022-08-12T10:34:26.680Z,22.25
2022-08-12T10:38:38.952Z,22.61
2022-08-12T10:43:01.731Z,22.88
2022-08-12T10:47:26.616Z,22.94
2022-08-12T10:51:51.700Z,22.33
2022-08-12T10:55:56.430Z,20.98
2022-08-12T11:00:31.353Z,21.45
2022-08-12T11:04:39.555Z,21.40
2022-08-12T11:08:46.432Z,21.50
2022-08-12T11:12:59.120Z,21.76
2022-08-12T11:17:33.944Z,21.77
2022-08-12T11:21:51.209Z,21.85
2022-08-12T11:25:57.648Z,20.55
2022-08-12T11:30:05.702Z,20.25
2022-08-12T11:34:51.715Z,20.05
2022-08-12T11:38:29.612Z,20.42
2022-08-12T11:42:32.565Z,20.45
2022-08-12T11:46:38.197Z,20.67
2022-08-12T11:50:40.638Z,19.40
2022-08-12T11:54:51.151Z,19.48
2022-08-12T12:01:58.957Z,19.51
2022-08-12T12:03:17.317Z,19.58
2022-08-12T12:07:18.945Z,19.56
2022-08-12T12:11:22.059Z,20.09
2022-08-12T12:15:25.280Z,19.91
2022-08-12T12:19:46.255Z,19.19
2022-08-12T12:23:48.112Z,19.41
2022-08-12T12:28:05.195Z,20.18
2022-08-12T12:32:11.820Z,20.04
2022-08-12T12:36:20.574Z,19.17
2022-08-12T12:40:29.822Z,19.81
2022-08-12T12:44:42.164Z,19.99
2022-08-12T12:48:53.164Z,19.76
2022-08-12T12:52:54.908Z,19.37
2022-08-12T12:56:58.513Z,19.94
2022-08-12T13:01:04.699Z,19.65
2022-08-12T13:05:28.275Z,20.01
2022-08-12T13:09:36.042Z,19.76
2022-08-12T13:14:07.500Z,19.62
2022-08-12T13:18:04.984Z,19.23
2022-08-12T13:22:19.366Z,19.87
2022-08-12T13:26:22.070Z,19.98
2022-08-12T13:30:26.056Z,19.42
2022-08-12T13:34:31.812Z,19.94
2022-08-12T13:38:44.278Z,19.39
2022-08-12T13:43:01.976Z,19.05
2022-08-12T13:47:06.724Z,18.62
2022-08-12T13:51:24.435Z,19.08
2022-08-12T13:55:30.972Z,18.79
2022-08-12T13:59:48.078Z,18.29
2022-08-12T14:03:51.928Z,19.08
2022-08-12T14:08:01.692Z,19.42
2022-08-12T14:12:05.600Z,19.39
2022-08-12T14:16:14.253Z,19.19
2022-08-12T14:20:16.061Z,18.89
2022-08-12T14:24:17.517Z,17.92
2022-08-12T14:28:23.250Z,17.84
2022-08-12T14:32:25.450Z,18.64
2022-08-12T14:36:27.289Z,18.33
2022-08-12T14:40:29.928Z,18.17
2022-08-12T14:44:57.267Z,18.80
2022-08-12T14:48:54.410Z,18.29
2022-08-12T14:57:20.308Z,18.67
2022-08-12T15:01:41.715Z,19.09
2022-08-12T15:06:05.296Z,19.04
2022-08-12T15:10:06.117Z,19.50
2022-08-12T15:14:09.241Z,18.67
2022-08-12T15:18:22.678Z,18.84
2022-08-12T15:22:39.581Z,18.66
2022-08-12T15:26:46.635Z,19.14
2022-08-12T15:30:52.665Z,19.25
2022-08-12T15:34:54.903Z,18.67
2022-08-12T15:38:57.305Z,18.82
2022-08-12T15:43:00.662Z,18.78
2022-08-12T15:47:03.884Z,18.44
2022-08-12T15:51:06.151Z,18.85
2022-08-12T15:55:14.058Z,18.40
2022-08-12T15:59:18.345Z,18.28
2022-08-12T16:03:46.141Z,18.27
2022-08-12T16:07:57.741Z,18.43
2022-08-12T16:12:03.115Z,18.29
2022-08-12T16:16:20.943Z,17.98
2022-08-12T16:20:32.991Z,17.95
2022-08-12T16:24:42.054Z,18.28
2022-08-12T16:28:47.368Z,18.78
2022-08-12T16:32:53.922Z,19.34
2022-08-12T16:37:00.033Z,19.50
2022-08-12T16:41:01.637Z,20.04
2022-08-12T16:45:03.402Z,20.60
2022-08-12T16:49:09.208Z,20.97
2022-08-12T16:53:18.501Z,21.16
2022-08-12T16:57:34.950Z,21.66
2022-08-12T17:01:37.520Z,21.21
2022-08-12T17:05:40.560Z,21.35
2022-08-12T17:09:50.629Z,21.55
2022-08-12T17:13:54.433Z,21.92
2022-08-12T17:18:39.409Z,21.91
2022-08-12T17:22:21.670Z,22.13
2022-08-12T17:26:28.229Z,22.99
2022-08-12T17:30:35.344Z,22.81
2022-08-12T17:34:56.383Z,22.79
2022-08-12T17:38:57.994Z,22.88
2022-08-12T17:43:57.347Z,23.01
2022-08-12T17:47:35.937Z,23.04
2022-08-12T17:51:50.422Z,23.78
2022-08-12T17:55:52.598Z,23.51
2022-08-12T17:59:55.412Z,23.50
2022-08-12T18:04:21.470Z,23.62
2022-08-12T18:08:22.042Z,23.59
2022-08-12T18:12:42.703Z,24.02
2022-08-12T18:16:53.507Z,24.22
2022-08-12T18:20:57.581Z,24.21
2022-08-12T18:25:02.662Z,24.40
2022-08-12T18:29:06.561Z,25.15
2022-08-12T18:33:11.925Z,26.09
2022-08-12T18:37:26.663Z,25.75
2022-08-12T18:41:35.991Z,26.97
2022-08-12T18:45:47.302Z,26.64
2022-08-12T18:49:58.867Z,27.05
2022-08-12T18:54:06.597Z,27.01
2022-08-12T18:58:13.949Z,27.83
2022-08-12T19:02:25.254Z,28.90
2022-08-12T19:06:35.657Z,31.30
2022-08-12T19:10:42.904Z,32.26
2022-08-12T19:15:04.175Z,33.03
2022-08-12T19:19:09.773Z,35.55
2022-08-12T19:23:16.612Z,35.75
2022-08-12T19:27:23.321Z,36.72
2022-08-12T19:31:58.856Z,40.02
2022-08-12T19:36:07.647Z,38.83
2022-08-12T19:40:32.495Z,40.33
2022-08-12T19:44:37.729Z,39.74
2022-08-12T19:48:40.974Z,40.02
2022-08-12T19:52:44.810Z,38.80
2022-08-12T19:56:50.517Z,40.62
2022-08-12T20:00:54.976Z,40.62
2022-08-12T20:06:06.241Z,41.46
2022-08-12T20:09:19.715Z,42.18
2022-08-12T20:13:27.215Z,42.17
2022-08-12T20:17:51.276Z,41.71
2022-08-12T20:21:54.929Z,41.96
2022-08-12T20:26:01.960Z,42.24
2022-08-12T20:30:11.444Z,41.98
2022-08-12T20:34:16.797Z,43.07
2022-08-12T20:38:26.896Z,42.80
2022-08-12T20:42:32.123Z,42.34
2022-08-12T20:46:33.903Z,43.03
2022-08-12T20:50:36.493Z,44.36
2022-08-12T20:54:40.486Z,43.90
2022-08-12T20:58:41.887Z,44.25
2022-08-12T21:02:50.214Z,44.60
2022-08-12T21:07:04.601Z,45.50
2022-08-12T21:11:11.510Z,44.24
2022-08-12T21:15:18.167Z,44.42
2022-08-12T21:19:53.007Z,44.58
2022-08-12T21:23:48.972Z,44.76
2022-08-12T21:27:59.553Z,44.84
2022-08-12T21:32:39.761Z,44.61
2022-08-12T21:36:34.525Z,45.63
2022-08-12T21:40:37.520Z,44.81
2022-08-12T21:45:45.730Z,45.84
2022-08-12T21:49:54.119Z,46.04
2022-08-12T21:54:07.670Z,45.52
2022-08-12T21:58:10.714Z,44.70
2022-08-12T22:02:32.097Z,45.70
2022-08-12T22:06:43.854Z,47.17
2022-08-12T22:10:46.132Z,46.79
2022-08-12T22:14:48.736Z,47.27
2022-08-12T22:18:50.839Z,46.23
2022-08-12T22:22:56.391Z,45.84
2022-08-12T22:27:18.178Z,46.31
2022-08-12T22:31:21.924Z,46.97
2022-08-12T22:35:55.846Z,46.51
2022-08-12T22:39:53.198Z,46.23
2022-08-12T22:44:14.558Z,46.95
2022-08-12T22:48:21.553Z,47.83
2022-08-12T22:52:27.759Z,47.03
2022-08-12T22:56:32.224Z,47.39
2022-08-12T23:00:35.396Z,48.29
2022-08-12T23:04:37.025Z,48.01
2022-08-12T23:08:38.458Z,48.68
2022-08-12T23:12:59.281Z,48.31
2022-08-12T23:17:07.417Z,48.17
2022-08-12T23:21:23.646Z,47.39
2022-08-12T23:25:54.191Z,47.64
2022-08-12T23:30:18.021Z,47.21
2022-08-12T23:34:13.769Z,46.75
2022-08-12T23:38:31.134Z,46.60
2022-08-12T23:42:33.598Z,46.28
2022-08-12T23:46:36.397Z,46.55
2022-08-12T23:50:40.759Z,46.74
2022-08-12T23:54:46.514Z,46.94
2022-08-12T23:59:00.418Z,47.80
